Time;durP1;ratioP1;P1;durP2;ratioP2;P2;SDS_P1;SDS_P2;PMS_P1;PMS_P2;Temp;Humidity;BMP_temperature;BMP_pressure;BME280_temperature;BME280_humidity;BME280_pressure;Samples;Min_cycle;Max_cycle;Signal;HPM_P1;HPM_P2
2023/09/25 00:00:35;;;;;;;;;;;14.30;99.90;;;;;;5057621;28;19939;-55
2023/09/25 00:03:03;;;;;;;;;;;14.30;99.90;;;;;;5075509;28;19908;-55
2023/09/25 00:05:32;;;;;;;;;;;14.30;99.90;;;;;;5075600;28;20312;-55
2023/09/25 00:07:57;;;;;;;;;;;14.30;99.90;;;;;;5075378;28;19995;-55
2023/09/25 00:10:24;;;;;;;;;;;14.40;99.90;;;;;;5075691;28;20346;-55
2023/09/25 00:12:50;;;;;;;;;;;14.30;99.90;;;;;;5075514;28;19975;-55
2023/09/25 00:15:16;;;;;;;;;;;14.40;99.90;;;;;;5075591;28;19947;-55
2023/09/25 00:17:43;;;;;;;;;;;14.30;99.90;;;;;;5075778;28;19915;-55
2023/09/25 00:20:12;;;;;;;;;;;14.20;99.90;;;;;;5074263;28;20349;-55
2023/09/25 00:22:39;;;;;;;;;;;14.20;99.90;;;;;;5075781;28;19991;-55
2023/09/25 00:25:05;;;;;;;;;;;14.20;99.90;;;;;;5074206;28;19908;-55
2023/09/25 00:27:31;;;;;;;;;;;14.10;99.90;;;;;;5057429;28;19915;-55
2023/09/25 00:29:58;;;;;;;;;;;13.80;99.90;;;;;;5074123;28;19916;-55
2023/09/25 00:32:24;;;;;;;;;;;13.90;99.90;;;;;;5057465;28;19912;-55
2023/09/25 00:34:49;;;;;;;;;;;14.00;99.90;;;;;;5074180;28;19916;-55
2023/09/25 00:37:15;;;;;;;;;;;14.20;99.90;;;;;;5075459;28;19912;-55
2023/09/25 00:39:44;;;;;;;;;;;14.20;99.90;;;;;;5057457;28;19908;-55
2023/09/25 00:42:10;;;;;;;;;;;14.20;99.90;;;;;;5075377;28;20349;-55
2023/09/25 00:44:36;;;;;;;;;;;14.20;99.90;;;;;;5075239;28;19908;-55
2023/09/25 00:47:04;;;;;;;;;;;14.40;99.90;;;;;;5057418;28;20246;-55
2023/09/25 00:49:31;;;;;;;;;;;14.30;99.90;;;;;;5073966;28;19958;-55
2023/09/25 00:51:57;;;;;;;;;;;14.10;99.90;;;;;;5075137;28;20409;-55
2023/09/25 00:54:23;;;;;;;;;;;14.10;99.90;;;;;;5078643;28;19912;-55
2023/09/25 00:56:49;;;;;;;;;;;14.20;99.90;;;;;;5077462;28;19922;-55
2023/09/25 00:59:15;;;;;;;;;;;14.10;99.90;;;;;;5063679;28;19940;-55
2023/09/25 01:01:41;;;;;;;;;;;14.30;99.90;;;;;;5058811;28;19909;-55
2023/09/25 01:04:08;;;;;;;;;;;14.30;99.90;;;;;;5024179;28;20368;-55
2023/09/25 01:06:34;;;;;;;;;;;14.20;99.90;;;;;;5040706;28;19999;-55
2023/09/25 01:08:59;;;;;;;;;;;14.10;99.90;;;;;;5040500;28;19955;-55
2023/09/25 01:11:25;;;;;;;;;;;14.20;99.90;;;;;;5058519;28;19912;-55
2023/09/25 01:13:51;;;;;;;;;;;14.10;99.90;;;;;;5058414;28;20011;-55
2023/09/25 01:16:18;;;;;;;;;;;14.10;99.90;;;;;;5058581;28;19959;-55
2023/09/25 01:18:44;;;;;;;;;;;14.10;99.90;;;;;;5058506;28;19908;-55
2023/09/25 01:21:12;;;;;;;;;;;14.10;99.90;;;;;;5040502;28;19909;-55
2023/09/25 01:23:38;;;;;;;;;;;14.00;99.90;;;;;;5058315;28;19913;-55
2023/09/25 01:26:04;;;;;;;;;;;14.00;99.90;;;;;;5040497;28;19908;-55
2023/09/25 01:28:32;;;;;;;;;;;14.00;99.90;;;;;;5058192;28;19939;-55
2023/09/25 01:30:58;;;;;;;;;;;14.00;99.90;;;;;;5040407;28;19937;-55
2023/09/25 01:33:26;;;;;;;;;;;14.00;99.90;;;;;;5040420;28;19948;-55
2023/09/25 01:35:52;;;;;;;;;;;14.00;99.90;;;;;;5040287;28;20354;-55
2023/09/25 01:38:17;;;;;;;;;;;14.00;99.90;;;;;;5058201;28;20373;-55
2023/09/25 01:40:43;;;;;;;;;;;13.90;99.90;;;;;;5057962;28;20003;-55
2023/09/25 01:43:09;;;;;;;;;;;13.90;99.90;;;;;;5057912;28;19944;-55
2023/09/25 01:45:35;;;;;;;;;;;14.00;99.90;;;;;;5058074;28;20030;-55
2023/09/25 01:48:01;;;;;;;;;;;13.80;99.90;;;;;;5057918;28;19920;-55
2023/09/25 01:50:27;;;;;;;;;;;13.80;99.90;;;;;;5042382;28;19912;-55
2023/09/25 01:53:00;;;;;;;;;;;13.90;99.90;;;;;;5057781;28;19913;-55
2023/09/25 01:55:31;;;;;;;;;;;14.00;99.90;;;;;;5057733;28;19909;-55
2023/09/25 01:57:58;;;;;;;;;;;14.00;99.90;;;;;;5042809;28;20119;-55
2023/09/25 02:00:24;;;;;;;;;;;14.10;99.90;;;;;;5059872;28;20086;-55
2023/09/25 02:02:50;;;;;;;;;;;14.10;99.90;;;;;;5043149;28;19916;-55
2023/09/25 02:05:16;;;;;;;;;;;14.10;99.90;;;;;;5075094;28;19908;-55
2023/09/25 02:07:41;;;;;;;;;;;14.20;99.90;;;;;;5076259;28;19999;-55
2023/09/25 02:10:07;;;;;;;;;;;14.20;99.90;;;;;;5075972;28;19922;-55
2023/09/25 02:12:34;;;;;;;;;;;14.20;99.90;;;;;;5059455;28;19905;-55
2023/09/25 02:15:02;;;;;;;;;;;14.10;99.90;;;;;;5077429;28;20399;-55
2023/09/25 02:17:29;;;;;;;;;;;14.10;99.90;;;;;;5059470;28;19912;-55
2023/09/25 02:19:56;;;;;;;;;;;14.10;99.90;;;;;;5076242;28;19912;-55
2023/09/25 02:22:22;;;;;;;;;;;14.10;99.90;;;;;;5042744;28;19954;-55
2023/09/25 02:24:48;;;;;;;;;;;14.10;99.90;;;;;;5077153;28;19908;-55
2023/09/25 02:27:14;;;;;;;;;;;14.20;99.90;;;;;;5077216;28;20011;-55
2023/09/25 02:29:39;;;;;;;;;;;14.20;99.90;;;;;;5058970;28;19913;-55
2023/09/25 02:32:06;;;;;;;;;;;14.10;99.90;;;;;;5077023;28;19936;-55
2023/09/25 02:34:32;;;;;;;;;;;14.10;99.90;;;;;;5059113;28;20316;-55
2023/09/25 02:36:58;;;;;;;;;;;14.10;99.90;;;;;;5076998;28;19915;-55
2023/09/25 02:39:25;;;;;;;;;;;14.20;99.90;;;;;;5075625;28;19923;-55
2023/09/25 02:41:53;;;;;;;;;;;14.10;99.90;;;;;;5076946;28;19934;-55
2023/09/25 02:44:18;;;;;;;;;;;14.20;99.90;;;;;;5058776;28;19908;-55
2023/09/25 02:46:44;;;;;;;;;;;14.10;99.90;;;;;;5076657;28;19916;-55
2023/09/25 02:49:10;;;;;;;;;;;14.10;99.90;;;;;;5076608;28;19913;-55
2023/09/25 02:51:37;;;;;;;;;;;14.10;99.90;;;;;;5076664;28;19913;-55
2023/09/25 02:54:03;;;;;;;;;;;14.10;99.90;;;;;;5076890;28;20003;-55
2023/09/25 02:56:29;;;;;;;;;;;14.10;99.90;;;;;;5058445;28;19959;-54
2023/09/25 02:58:54;;;;;;;;;;;14.10;99.90;;;;;;5064317;28;20370;-55
2023/09/25 03:01:20;;;;;;;;;;;14.20;99.90;;;;;;5038801;28;19940;-55
2023/09/25 03:03:46;;;;;;;;;;;14.20;99.90;;;;;;5022208;28;19948;-55
2023/09/25 03:06:12;;;;;;;;;;;14.20;99.90;;;;;;5056274;28;19934;-55
2023/09/25 03:08:38;;;;;;;;;;;14.10;99.90;;;;;;5056389;28;20404;-55
2023/09/25 03:11:03;;;;;;;;;;;14.10;99.90;;;;;;5056412;28;19908;-55
2023/09/25 03:13:29;;;;;;;;;;;14.20;99.90;;;;;;5056237;28;19998;-55
2023/09/25 03:15:55;;;;;;;;;;;14.30;99.90;;;;;;5038040;28;20014;-55
2023/09/25 03:18:21;;;;;;;;;;;14.20;99.90;;;;;;5038339;28;19908;-55
2023/09/25 03:20:47;;;;;;;;;;;14.30;99.90;;;;;;5038330;28;19909;-55
2023/09/25 03:23:13;;;;;;;;;;;14.20;99.90;;;;;;5038251;28;19912;-55
2023/09/25 03:25:40;;;;;;;;;;;14.20;99.90;;;;;;5056148;28;19905;-55
2023/09/25 03:28:07;;;;;;;;;;;14.20;99.90;;;;;;5038276;28;19909;-55
2023/09/25 03:30:34;;;;;;;;;;;14.20;99.90;;;;;;5021701;28;19935;-55
2023/09/25 03:33:00;;;;;;;;;;;14.20;99.90;;;;;;5056084;28;20334;-55
2023/09/25 03:35:26;;;;;;;;;;;14.30;99.90;;;;;;5038084;28;19905;-55
2023/09/25 03:37:51;;;;;;;;;;;14.30;99.90;;;;;;5056020;28;19909;-55
2023/09/25 03:40:17;;;;;;;;;;;14.40;99.90;;;;;;5055994;28;19913;-55
2023/09/25 03:42:43;;;;;;;;;;;14.30;99.90;;;;;;5056304;28;19909;-55
2023/09/25 03:45:09;;;;;;;;;;;14.30;99.90;;;;;;5038001;28;19905;-55
2023/09/25 03:47:35;;;;;;;;;;;14.30;99.90;;;;;;5055910;28;19916;-55
2023/09/25 03:50:04;;;;;;;;;;;14.30;99.90;;;;;;5038068;28;19913;-55
2023/09/25 03:52:30;;;;;;;;;;;14.30;99.90;;;;;;5036012;28;19909;-55
2023/09/25 03:54:57;;;;;;;;;;;14.30;99.90;;;;;;5037845;28;19912;-55
2023/09/25 03:57:23;;;;;;;;;;;14.30;99.90;;;;;;5037908;28;20281;-55
2023/09/25 03:59:50;;;;;;;;;;;14.20;99.90;;;;;;5074014;28;19909;-55
2023/09/25 04:02:16;;;;;;;;;;;14.20;99.90;;;;;;5057780;28;19909;-55
2023/09/25 04:04:41;;;;;;;;;;;14.20;99.90;;;;;;5075370;28;19916;-55
2023/09/25 04:07:07;;;;;;;;;;;14.30;99.90;;;;;;5075417;28;20427;-55
2023/09/25 04:09:33;;;;;;;;;;;14.40;99.90;;;;;;5075764;28;19944;-56
2023/09/25 04:11:59;;;;;;;;;;;14.30;99.90;;;;;;5057466;28;19916;-55
2023/09/25 04:14:27;;;;;;;;;;;14.40;99.90;;;;;;5075479;28;20263;-55
2023/09/25 04:16:54;;;;;;;;;;;14.50;99.90;;;;;;5057686;28;19904;-55
2023/09/25 04:19:20;;;;;;;;;;;14.50;99.90;;;;;;5075548;28;19908;-55
2023/09/25 04:21:47;;;;;;;;;;;14.50;99.90;;;;;;5075658;28;20372;-55
2023/09/25 04:24:13;;;;;;;;;;;14.40;99.90;;;;;;5075585;28;19912;-55
2023/09/25 04:26:39;;;;;;;;;;;14.40;99.90;;;;;;5074389;28;19904;-55
2023/09/25 04:29:05;;;;;;;;;;;14.20;99.90;;;;;;5078910;28;19965;-55
2023/09/25 04:31:32;;;;;;;;;;;14.20;99.90;;;;;;5079147;28;19916;-55
2023/09/25 04:33:58;;;;;;;;;;;14.20;99.90;;;;;;5077827;28;20323;-55
2023/09/25 04:36:24;;;;;;;;;;;14.30;99.90;;;;;;5079341;28;19908;-55
2023/09/25 04:38:50;;;;;;;;;;;14.20;99.90;;;;;;5079231;28;19915;-55
2023/09/25 04:41:15;;;;;;;;;;;14.30;99.90;;;;;;5061090;28;20349;-56
2023/09/25 04:43:41;;;;;;;;;;;14.30;99.90;;;;;;5061117;28;19909;-56
2023/09/25 04:46:07;;;;;;;;;;;14.30;99.90;;;;;;5079131;28;19955;-56
2023/09/25 04:48:36;;;;;;;;;;;14.20;99.90;;;;;;5078850;28;19982;-56
2023/09/25 04:51:02;;;;;;;;;;;14.20;99.90;;;;;;5079042;28;19915;-56
2023/09/25 04:53:27;;;;;;;;;;;14.30;99.90;;;;;;5078963;28;19971;-55
2023/09/25 04:55:53;;;;;;;;;;;14.30;99.90;;;;;;5078616;28;20324;-55
2023/09/25 04:58:19;;;;;;;;;;;14.40;99.90;;;;;;5072767;28;19909;-56
2023/09/25 05:00:46;;;;;;;;;;;14.40;99.90;;;;;;5059074;28;19955;-55
2023/09/25 05:03:11;;;;;;;;;;;14.40;99.90;;;;;;5040797;28;19912;-55
2023/09/25 05:05:37;;;;;;;;;;;14.30;99.90;;;;;;5058586;28;19905;-56
2023/09/25 05:08:03;;;;;;;;;;;14.30;99.90;;;;;;5058532;28;19913;-55
2023/09/25 05:10:29;;;;;;;;;;;14.30;99.90;;;;;;5058405;28;19919;-56
2023/09/25 05:12:56;;;;;;;;;;;14.40;99.90;;;;;;5058465;28;19908;-56
2023/09/25 05:15:21;;;;;;;;;;;14.50;99.90;;;;;;5057919;28;19908;-56
2023/09/25 05:17:48;;;;;;;;;;;14.40;99.90;;;;;;5040595;28;19937;-55
2023/09/25 05:20:15;;;;;;;;;;;14.40;99.90;;;;;;5056834;28;19996;-56
2023/09/25 05:22:43;;;;;;;;;;;14.40;99.90;;;;;;5058353;28;19977;-56
2023/09/25 05:25:09;;;;;;;;;;;14.40;99.90;;;;;;5058073;28;19916;-56
2023/09/25 05:27:39;;;;;;;;;;;14.40;99.90;;;;;;5057826;28;19967;-56
2023/09/25 05:30:09;;;;;;;;;;;14.40;99.90;;;;;;5038802;28;19924;-56
2023/09/25 05:32:40;;;;;;;;;;;14.40;99.90;;;;;;5057358;28;20385;-56
2023/09/25 05:35:09;;;;;;;;;;;14.40;99.90;;;;;;5058089;28;19908;-56
2023/09/25 05:37:36;;;;;;;;;;;14.30;99.90;;;;;;5058086;28;20354;-56
2023/09/25 05:40:03;;;;;;;;;;;14.40;99.90;;;;;;5039323;28;19908;-56
2023/09/25 05:42:29;;;;;;;;;;;14.40;99.90;;;;;;5056817;28;20353;-56
2023/09/25 05:44:55;;;;;;;;;;;14.30;99.90;;;;;;5042664;28;19908;-56
2023/09/25 05:47:21;;;;;;;;;;;14.40;99.90;;;;;;5039114;28;20250;-56
2023/09/25 05:49:49;;;;;;;;;;;14.40;99.90;;;;;;5056898;28;20362;-56
2023/09/25 05:52:17;;;;;;;;;;;14.40;99.90;;;;;;5039892;28;19908;-56
2023/09/25 05:54:43;;;;;;;;;;;14.50;99.90;;;;;;5039645;28;20362;-56
2023/09/25 05:57:10;;;;;;;;;;;14.50;99.90;;;;;;5039821;28;19912;-56
2023/09/25 05:59:36;;;;;;;;;;;14.40;99.90;;;;;;5039691;28;20274;-56
2023/09/25 06:02:02;;;;;;;;;;;14.40;99.90;;;;;;5037814;28;19909;-56
2023/09/25 06:04:28;;;;;;;;;;;14.40;99.90;;;;;;5055977;28;19913;-56
2023/09/25 06:06:55;;;;;;;;;;;14.50;99.90;;;;;;5056799;28;19920;-56
2023/09/25 06:09:21;;;;;;;;;;;14.50;99.90;;;;;;5039160;28;19916;-56
2023/09/25 06:11:48;;;;;;;;;;;14.40;99.90;;;;;;5038206;28;19932;-56
2023/09/25 06:14:14;;;;;;;;;;;14.20;99.90;;;;;;5056945;28;19913;-56
2023/09/25 06:16:40;;;;;;;;;;;14.10;99.90;;;;;;5057030;28;19931;-56
2023/09/25 06:19:12;;;;;;;;;;;14.20;99.90;;;;;;5038943;28;19944;-56
2023/09/25 06:21:38;;;;;;;;;;;14.40;99.90;;;;;;5057205;28;19913;-56
2023/09/25 06:24:06;;;;;;;;;;;14.50;99.90;;;;;;5056753;28;19932;-56
2023/09/25 06:26:32;;;;;;;;;;;14.50;99.90;;;;;;5056971;28;20007;-56
2023/09/25 06:28:58;;;;;;;;;;;14.50;99.90;;;;;;5038457;28;19920;-56
2023/09/25 06:31:24;;;;;;;;;;;14.60;99.90;;;;;;5056750;28;19931;-56
2023/09/25 06:33:50;;;;;;;;;;;14.60;99.90;;;;;;5038957;28;19908;-56
2023/09/25 06:36:16;;;;;;;;;;;14.60;99.90;;;;;;5056770;28;20421;-56
2023/09/25 06:38:42;;;;;;;;;;;14.60;99.90;;;;;;5038804;28;19948;-56
2023/09/25 06:41:13;;;;;;;;;;;14.60;99.90;;;;;;5057344;28;19963;-56
2023/09/25 06:43:39;;;;;;;;;;;14.60;99.90;;;;;;5055940;28;19908;-56
2023/09/25 06:46:05;;;;;;;;;;;14.60;99.90;;;;;;5056065;28;20293;-56
2023/09/25 06:48:32;;;;;;;;;;;14.60;99.90;;;;;;5055706;28;19976;-56
2023/09/25 06:50:58;;;;;;;;;;;14.60;99.90;;;;;;5055930;28;19909;-56
2023/09/25 06:53:24;;;;;;;;;;;14.70;99.90;;;;;;5054979;28;19948;-56
2023/09/25 06:55:49;;;;;;;;;;;14.60;99.90;;;;;;5056591;28;19911;-56
2023/09/25 06:58:15;;;;;;;;;;;14.60;99.90;;;;;;5056454;28;19908;-56
2023/09/25 07:00:44;;;;;;;;;;;14.50;99.90;;;;;;5055871;28;20374;-56
2023/09/25 07:03:09;;;;;;;;;;;14.60;99.90;;;;;;5056378;28;19904;-56
2023/09/25 07:05:35;;;;;;;;;;;14.60;99.90;;;;;;5055363;28;19974;-56
2023/09/25 07:08:01;;;;;;;;;;;14.70;99.90;;;;;;5054305;28;19919;-56
2023/09/25 07:10:27;;;;;;;;;;;14.80;99.90;;;;;;5054532;28;19913;-56
2023/09/25 07:12:53;;;;;;;;;;;14.80;99.90;;;;;;5054892;28;19919;-56
2023/09/25 07:15:19;;;;;;;;;;;14.70;99.90;;;;;;5056351;28;20373;-56
2023/09/25 07:17:47;;;;;;;;;;;14.70;99.90;;;;;;5055120;28;19914;-56
2023/09/25 07:20:12;;;;;;;;;;;14.80;99.90;;;;;;5056666;28;19915;-56
2023/09/25 07:22:38;;;;;;;;;;;14.90;99.90;;;;;;5055633;28;19912;-56
2023/09/25 07:25:05;;;;;;;;;;;14.90;99.90;;;;;;5056463;28;19961;-56
2023/09/25 07:27:32;;;;;;;;;;;14.90;99.90;;;;;;5056428;28;19904;-56
2023/09/25 07:29:59;;;;;;;;;;;14.90;99.90;;;;;;5055452;28;19936;-56
2023/09/25 07:32:25;;;;;;;;;;;14.80;99.90;;;;;;5037502;28;20260;-56
2023/09/25 07:34:51;;;;;;;;;;;14.90;99.90;;;;;;5053957;28;20374;-56
2023/09/25 07:37:17;;;;;;;;;;;14.80;99.90;;;;;;5054102;28;19913;-56
2023/09/25 07:39:44;;;;;;;;;;;14.90;99.90;;;;;;5037564;28;19909;-56
2023/09/25 07:42:10;;;;;;;;;;;14.90;99.90;;;;;;5054192;28;19908;-56
2023/09/25 07:44:36;;;;;;;;;;;14.90;99.90;;;;;;5053010;28;20481;-56
2023/09/25 07:47:06;;;;;;;;;;;14.80;99.90;;;;;;5055580;28;19916;-56
2023/09/25 07:53:14;;;;;;;;;;;15.00;99.90;;;;;;5048042;28;19966;-56
2023/09/25 07:55:41;;;;;;;;;;;15.00;99.90;;;;;;5055541;28;19909;-56
2023/09/25 07:58:07;;;;;;;;;;;15.10;99.90;;;;;;5059834;28;19953;-56
2023/09/25 08:00:37;;;;;;;;;;;15.10;99.90;;;;;;5073250;28;19908;-56
2023/09/25 08:03:05;;;;;;;;;;;15.20;99.90;;;;;;5060097;28;20353;-56
2023/09/25 08:05:31;;;;;;;;;;;15.30;99.90;;;;;;5061876;28;19908;-56
2023/09/25 08:07:57;;;;;;;;;;;15.40;99.90;;;;;;5079058;28;19912;-56
2023/09/25 08:10:23;;;;;;;;;;;15.40;99.90;;;;;;5061425;28;20324;-56
2023/09/25 08:12:50;;;;;;;;;;;15.50;99.90;;;;;;5061691;28;20371;-56
2023/09/25 08:15:16;;;;;;;;;;;15.70;99.90;;;;;;5061097;28;19908;-56
2023/09/25 08:17:43;;;;;;;;;;;15.60;99.90;;;;;;5077893;28;20350;-56
2023/09/25 08:20:22;;;;;;;;;;;15.60;99.90;;;;;;5056058;28;19947;-56
2023/09/25 08:22:49;;;;;;;;;;;15.70;99.90;;;;;;5041264;28;19999;-56
2023/09/25 08:25:15;;;;;;;;;;;15.80;99.90;;;;;;5041178;28;20016;-56
2023/09/25 08:27:41;;;;;;;;;;;15.80;99.90;;;;;;5059222;28;19909;-56
2023/09/25 08:30:08;;;;;;;;;;;15.90;99.90;;;;;;5058717;28;19936;-56
2023/09/25 08:36:13;;;;;;;;;;;15.90;99.90;;;;;;5032112;28;19935;-56
2023/09/25 08:38:39;;;;;;;;;;;16.20;99.90;;;;;;5039100;28;19955;-56
2023/09/25 08:41:05;;;;;;;;;;;16.10;99.90;;;;;;5038636;28;19909;-56
2023/09/25 08:43:32;;;;;;;;;;;16.20;99.90;;;;;;5054031;28;19908;-56
2023/09/25 08:45:58;;;;;;;;;;;16.50;99.90;;;;;;5058521;28;20436;-56
2023/09/25 08:48:24;;;;;;;;;;;16.80;99.90;;;;;;5058190;28;19908;-56
2023/09/25 08:50:50;;;;;;;;;;;17.00;99.90;;;;;;5039825;28;19915;-56
2023/09/25 08:53:16;;;;;;;;;;;17.10;99.90;;;;;;5058001;28;19909;-56
2023/09/25 08:55:42;;;;;;;;;;;17.20;99.90;;;;;;5057964;28;19909;-56
2023/09/25 08:58:09;;;;;;;;;;;17.40;99.90;;;;;;5057384;28;19919;-56
2023/09/25 09:00:35;;;;;;;;;;;17.50;99.90;;;;;;5040711;28;20342;-56
2023/09/25 09:03:02;;;;;;;;;;;17.50;99.90;;;;;;5037950;28;19913;-56
2023/09/25 09:05:28;;;;;;;;;;;17.50;99.90;;;;;;5051300;28;19920;-56
2023/09/25 09:07:57;;;;;;;;;;;17.50;99.90;;;;;;5057001;28;19913;-56
2023/09/25 09:10:22;;;;;;;;;;;17.50;99.90;;;;;;5057284;28;19908;-56
2023/09/25 09:12:54;;;;;;;;;;;17.60;99.90;;;;;;5053955;28;19966;-56
2023/09/25 09:15:26;;;;;;;;;;;17.50;99.90;;;;;;5050655;28;20281;-56
2023/09/25 09:17:54;;;;;;;;;;;17.60;99.90;;;;;;5058170;28;20008;-56
2023/09/25 09:20:37;;;;;;;;;;;17.60;99.90;;;;;;5058423;28;19908;-56
2023/09/25 09:23:03;;;;;;;;;;;17.60;99.90;;;;;;5058299;28;20418;-56
2023/09/25 09:25:29;;;;;;;;;;;17.70;99.90;;;;;;5058767;28;19908;-56
2023/09/25 09:27:58;;;;;;;;;;;17.80;99.90;;;;;;5058333;28;19916;-56
2023/09/25 09:30:24;;;;;;;;;;;18.00;99.90;;;;;;5058481;28;19912;-56
2023/09/25 09:36:28;;;;;;;;;;;18.00;99.90;;;;;;5058155;28;19915;-56
2023/09/25 09:38:55;;;;;;;;;;;17.70;99.90;;;;;;5057561;28;19908;-56
2023/09/25 09:41:21;;;;;;;;;;;17.80;99.90;;;;;;5057870;28;19908;-56
2023/09/25 09:43:47;;;;;;;;;;;17.80;99.90;;;;;;5055389;28;20019;-56
2023/09/25 09:46:13;;;;;;;;;;;17.80;99.90;;;;;;5058058;28;19944;-56
2023/09/25 09:48:41;;;;;;;;;;;17.70;99.90;;;;;;5057416;28;20285;-56
2023/09/25 09:51:14;;;;;;;;;;;17.80;99.90;;;;;;5053851;28;20271;-56
2023/09/25 09:53:48;;;;;;;;;;;17.70;99.90;;;;;;5049608;28;20326;-56
2023/09/25 09:56:59;;;;;;;;;;;17.70;99.90;;;;;;5050224;28;19913;-56
2023/09/25 09:59:26;;;;;;;;;;;17.80;99.90;;;;;;5057504;28;19944;-56
2023/09/25 10:01:52;;;;;;;;;;;17.90;99.90;;;;;;5058050;28;19928;-56
2023/09/25 10:04:18;;;;;;;;;;;17.90;99.90;;;;;;5057756;28;19970;-56
2023/09/25 10:06:48;;;;;;;;;;;17.80;99.90;;;;;;5057368;28;19912;-56
2023/09/25 10:09:15;;;;;;;;;;;17.80;99.90;;;;;;5057894;28;20012;-56
2023/09/25 10:11:42;;;;;;;;;;;17.80;99.90;;;;;;5057799;28;19912;-56
2023/09/25 10:14:08;;;;;;;;;;;17.90;99.90;;;;;;5057056;28;19955;-56
2023/09/25 10:16:52;;;;;;;;;;;18.10;99.90;;;;;;5057031;28;19910;-56
2023/09/25 10:19:21;;;;;;;;;;;18.00;99.90;;;;;;5056899;28;20004;-56
2023/09/25 10:22:06;;;;;;;;;;;18.70;99.90;;;;;;5056574;28;19915;-56
2023/09/25 10:24:33;;;;;;;;;;;19.10;99.90;;;;;;5057038;28;20020;-56
2023/09/25 10:26:59;;;;;;;;;;;19.40;99.90;;;;;;5055700;28;19970;-56
2023/09/25 10:29:26;;;;;;;;;;;19.40;99.90;;;;;;5056438;28;19959;-56
2023/09/25 10:31:52;;;;;;;;;;;19.40;99.90;;;;;;5056982;28;19946;-56
2023/09/25 10:34:21;;;;;;;;;;;19.30;99.90;;;;;;5056744;28;20336;-56
2023/09/25 10:36:49;;;;;;;;;;;19.20;99.90;;;;;;5055925;28;20340;-56
2023/09/25 10:39:16;;;;;;;;;;;19.30;99.90;;;;;;5056825;28;19916;-56
2023/09/25 10:41:44;;;;;;;;;;;19.50;99.90;;;;;;5056680;28;19909;-56
2023/09/25 10:44:11;;;;;;;;;;;19.60;99.90;;;;;;5055229;28;19920;-56
2023/09/25 10:46:37;;;;;;;;;;;19.80;99.90;;;;;;5055827;28;19909;-56
2023/09/25 10:49:02;;;;;;;;;;;20.00;99.90;;;;;;5056566;28;19908;-56
2023/09/25 10:51:28;;;;;;;;;;;19.90;99.90;;;;;;5055714;28;19916;-56
2023/09/25 10:53:54;;;;;;;;;;;19.50;99.90;;;;;;5056298;28;19909;-56
2023/09/25 10:56:21;;;;;;;;;;;19.50;99.90;;;;;;5056083;28;19972;-56
2023/09/25 10:58:53;;;;;;;;;;;19.60;99.90;;;;;;5055774;28;19916;-56
2023/09/25 11:01:31;;;;;;;;;;;19.40;99.90;;;;;;5053297;28;19963;-56
2023/09/25 11:03:59;;;;;;;;;;;19.30;99.90;;;;;;5056217;28;19958;-56
2023/09/25 11:06:25;;;;;;;;;;;19.30;99.90;;;;;;5056061;28;20337;-56
2023/09/25 11:09:03;;;;;;;;;;;19.10;99.90;;;;;;5055506;28;19920;-56
2023/09/25 11:11:29;;;;;;;;;;;19.20;99.90;;;;;;5054268;28;19913;-56
2023/09/25 11:13:55;;;;;;;;;;;19.10;99.90;;;;;;5055256;28;19932;-56
2023/09/25 11:16:22;;;;;;;;;;;19.20;99.90;;;;;;5055751;28;19944;-56
2023/09/25 11:19:10;;;;;;;;;;;19.30;99.90;;;;;;5055538;28;19912;-56
2023/09/25 11:21:36;;;;;;;;;;;19.30;99.90;;;;;;5055589;28;19919;-56
2023/09/25 11:24:09;;;;;;;;;;;19.30;99.90;;;;;;5055804;28;19935;-56
2023/09/25 11:26:36;;;;;;;;;;;19.40;99.90;;;;;;5053652;28;20384;-56
2023/09/25 11:29:05;;;;;;;;;;;19.70;99.90;;;;;;5055826;28;20015;-56
2023/09/25 11:31:31;;;;;;;;;;;20.20;99.90;;;;;;5055698;28;19959;-56
2023/09/25 11:33:57;;;;;;;;;;;21.10;99.90;;;;;;5055414;28;19916;-56
2023/09/25 11:36:24;;;;;;;;;;;21.50;99.90;;;;;;5054964;28;20393;-56
2023/09/25 11:38:52;;;;;;;;;;;21.70;99.90;;;;;;5053281;28;19909;-57
2023/09/25 11:41:17;;;;;;;;;;;21.20;99.90;;;;;;5055006;28;19909;-56
2023/09/25 11:43:43;;;;;;;;;;;21.40;99.90;;;;;;5055228;28;20334;-56
2023/09/25 11:46:09;;;;;;;;;;;20.50;99.90;;;;;;5054982;28;19956;-56
2023/09/25 11:48:38;;;;;;;;;;;20.60;99.90;;;;;;5054907;28;19931;-56
2023/09/25 11:51:03;;;;;;;;;;;20.90;99.90;;;;;;5055656;28;19940;-56
2023/09/25 11:53:29;;;;;;;;;;;20.90;99.90;;;;;;5054483;28;20341;-56
2023/09/25 11:55:55;;;;;;;;;;;21.30;99.90;;;;;;5055517;28;19947;-56
2023/09/25 11:58:21;;;;;;;;;;;21.80;99.90;;;;;;5055309;28;19908;-56
2023/09/25 12:00:47;;;;;;;;;;;22.10;99.90;;;;;;5055544;28;19963;-56
2023/09/25 12:03:13;;;;;;;;;;;21.90;99.90;;;;;;5055126;28;19995;-56
2023/09/25 12:05:39;;;;;;;;;;;22.20;99.90;;;;;;5055056;28;20418;-56
2023/09/25 12:08:06;;;;;;;;;;;21.80;99.90;;;;;;5054185;28;19916;-56
2023/09/25 12:10:38;;;;;;;;;;;21.50;99.90;;;;;;5055639;28;19913;-56
2023/09/25 12:13:07;;;;;;;;;;;21.30;99.90;;;;;;5054646;28;20159;-57
2023/09/25 12:15:33;;;;;;;;;;;21.80;99.90;;;;;;5051210;28;19995;-56
2023/09/25 12:17:59;;;;;;;;;;;22.10;99.90;;;;;;5052964;28;20330;-56
2023/09/25 12:20:27;;;;;;;;;;;21.70;99.90;;;;;;5054900;28;19909;-56
2023/09/25 12:22:54;;;;;;;;;;;21.90;99.90;;;;;;5055312;28;19940;-56
2023/09/25 12:25:21;;;;;;;;;;;21.80;97.90;;;;;;5055469;28;20356;-56
2023/09/25 12:27:46;;;;;;;;;;;21.60;99.50;;;;;;5055060;28;19915;-56
2023/09/25 12:30:14;;;;;;;;;;;21.80;99.50;;;;;;5054709;28;19912;-56
2023/09/25 12:36:15;;;;;;;;;;;22.30;97.70;;;;;;5055995;28;19931;-56
2023/09/25 12:38:41;;;;;;;;;;;22.50;98.50;;;;;;5055527;28;19931;-56
2023/09/25 12:41:07;;;;;;;;;;;22.40;97.40;;;;;;5053909;28;19908;-56
2023/09/25 12:43:33;;;;;;;;;;;22.50;98.80;;;;;;5055204;28;19913;-56
2023/09/25 12:45:59;;;;;;;;;;;22.30;98.80;;;;;;5043824;28;19916;-56
2023/09/25 12:48:25;;;;;;;;;;;22.20;99.80;;;;;;5055779;28;19913;-56
2023/09/25 12:50:51;;;;;;;;;;;22.00;99.90;;;;;;5058374;28;20006;-56
2023/09/25 12:53:17;;;;;;;;;;;22.00;99.90;;;;;;5059011;28;19932;-56
2023/09/25 12:55:43;;;;;;;;;;;21.80;99.50;;;;;;5058527;28;19911;-56
2023/09/25 12:58:09;;;;;;;;;;;21.80;99.90;;;;;;5058583;28;20353;-56
2023/09/25 13:00:35;;;;;;;;;;;21.60;99.90;;;;;;5058904;28;19915;-56
2023/09/25 13:03:01;;;;;;;;;;;21.70;99.90;;;;;;5058327;28;19916;-56
2023/09/25 13:05:27;;;;;;;;;;;21.40;99.90;;;;;;5059110;28;19915;-56
2023/09/25 13:07:53;;;;;;;;;;;21.30;99.90;;;;;;5058358;28;19917;-55
2023/09/25 13:10:18;;;;;;;;;;;21.30;99.90;;;;;;5058369;28;19916;-56
2023/09/25 13:12:44;;;;;;;;;;;21.30;99.90;;;;;;5058088;28;19916;-56
2023/09/25 13:15:11;;;;;;;;;;;21.40;99.90;;;;;;5058419;28;19909;-56
2023/09/25 13:17:37;;;;;;;;;;;21.40;99.90;;;;;;5057248;28;19909;-56
2023/09/25 13:20:07;;;;;;;;;;;21.30;99.90;;;;;;5058129;28;19909;-55
2023/09/25 13:22:34;;;;;;;;;;;21.30;99.90;;;;;;5058599;28;19908;-56
2023/09/25 13:25:00;;;;;;;;;;;21.30;99.90;;;;;;5057961;28;20330;-56
2023/09/25 13:27:26;;;;;;;;;;;21.40;99.90;;;;;;5057927;28;19951;-56
2023/09/25 13:29:51;;;;;;;;;;;21.60;99.90;;;;;;5057392;28;19920;-56
2023/09/25 13:32:17;;;;;;;;;;;21.60;99.90;;;;;;5055776;28;19929;-56
2023/09/25 13:34:43;;;;;;;;;;;21.70;99.90;;;;;;5056921;28;20041;-56
2023/09/25 13:37:09;;;;;;;;;;;21.70;99.90;;;;;;5056962;28;19916;-56
2023/09/25 13:39:35;;;;;;;;;;;21.70;99.90;;;;;;5057896;28;19916;-56
2023/09/25 13:42:00;;;;;;;;;;;21.80;99.90;;;;;;5058058;28;19905;-56
2023/09/25 13:44:26;;;;;;;;;;;21.70;99.90;;;;;;5057199;28;19913;-56
2023/09/25 13:46:54;;;;;;;;;;;21.80;99.90;;;;;;5057643;28;19908;-56
2023/09/25 13:49:23;;;;;;;;;;;21.70;99.90;;;;;;5057527;28;19913;-56
2023/09/25 13:51:50;;;;;;;;;;;21.90;99.90;;;;;;5057845;28;19913;-56
2023/09/25 13:54:16;;;;;;;;;;;21.70;99.50;;;;;;5057799;28;19924;-56
2023/09/25 13:56:43;;;;;;;;;;;21.80;99.60;;;;;;5057527;28;19912;-56
2023/09/25 13:59:09;;;;;;;;;;;22.10;99.10;;;;;;5070275;28;19912;-56
2023/09/25 14:01:37;;;;;;;;;;;22.10;98.80;;;;;;5077751;28;20273;-56
2023/09/25 14:04:03;;;;;;;;;;;22.00;99.40;;;;;;5077340;28;19995;-56
2023/09/25 14:06:30;;;;;;;;;;;22.00;99.80;;;;;;5077415;28;19951;-56
2023/09/25 14:08:56;;;;;;;;;;;22.00;99.90;;;;;;5077428;28;19917;-56
2023/09/25 14:11:22;;;;;;;;;;;22.00;99.90;;;;;;5077424;28;19914;-56
2023/09/25 14:13:48;;;;;;;;;;;22.00;99.70;;;;;;5077275;28;19908;-56
2023/09/25 14:16:14;;;;;;;;;;;22.00;99.70;;;;;;5077366;28;19989;-56
2023/09/25 14:18:39;;;;;;;;;;;21.90;99.60;;;;;;5077149;28;19915;-56
2023/09/25 14:21:05;;;;;;;;;;;21.90;99.90;;;;;;5077426;28;19913;-56
2023/09/25 14:23:31;;;;;;;;;;;21.60;99.60;;;;;;5077200;28;19908;-56
2023/09/25 14:25:57;;;;;;;;;;;21.80;99.90;;;;;;5077066;28;20365;-56
2023/09/25 14:28:23;;;;;;;;;;;21.90;99.90;;;;;;5076663;28;19995;-56